createdAt,value
2018-09-19T00:00:21.521Z,83.90
2018-09-19T00:00:55.010Z,83.70
2018-09-19T00:01:28.516Z,83.40
2018-09-19T00:02:02.058Z,83.40
2018-09-19T00:02:35.584Z,83.50
2018-09-19T00:03:09.096Z,83.80
2018-09-19T00:03:42.635Z,84.70
2018-09-19T00:04:16.219Z,84.70
2018-09-19T00:04:49.735Z,84.40
2018-09-19T00:05:23.245Z,84.50
2018-09-19T00:05:56.718Z,84.80
2018-09-19T00:06:30.254Z,84.90
2018-09-19T00:07:03.845Z,85.10
2018-09-19T00:07:37.349Z,85.00
2018-09-19T00:08:10.851Z,84.90
2018-09-19T00:08:44.373Z,84.40
2018-09-19T00:09:17.913Z,83.90
2018-09-19T00:09:51.477Z,84.10
2018-09-19T00:10:25.005Z,84.20
2018-09-19T00:10:58.472Z,84.20
2018-09-19T00:11:31.974Z,83.80
2018-09-19T00:12:05.545Z,83.80
2018-09-19T00:12:39.059Z,83.40
2018-09-19T00:13:12.568Z,82.70
2018-09-19T00:13:46.101Z,81.80
2018-09-19T00:14:19.621Z,81.40
2018-09-19T00:14:53.091Z,80.50
2018-09-19T00:15:26.563Z,78.60
2018-09-19T00:16:00.032Z,77.30
2018-09-19T00:16:33.511Z,75.80
2018-09-19T00:17:06.996Z,74.90
2018-09-19T00:17:40.500Z,74.10
2018-09-19T00:18:14.022Z,73.30
2018-09-19T00:18:47.545Z,72.80
2018-09-19T00:19:21.099Z,71.20
2018-09-19T00:19:54.616Z,70.10
2018-09-19T00:20:28.186Z,69.10
2018-09-19T00:21:01.952Z,67.80
2018-09-19T00:21:35.352Z,67.10
2018-09-19T00:22:08.880Z,66.20
2018-09-19T00:22:42.377Z,65.90
2018-09-19T00:23:15.914Z,64.50
2018-09-19T00:23:49.441Z,63.20
2018-09-19T00:24:22.956Z,62.60
2018-09-19T00:24:56.475Z,62.40
2018-09-19T00:25:29.975Z,61.10
2018-09-19T00:26:03.463Z,60.70
2018-09-19T00:26:36.952Z,60.50
2018-09-19T00:27:10.439Z,60.50
2018-09-19T00:27:43.921Z,59.60
2018-09-19T00:28:17.419Z,59.70
2018-09-19T00:28:50.901Z,59.40
2018-09-19T00:29:24.397Z,59.40
2018-09-19T00:29:57.903Z,59.70
2018-09-19T00:31:34.717Z,60.20
2018-09-19T00:32:08.240Z,60.50
2018-09-19T00:32:41.736Z,60.90
2018-09-19T00:33:15.225Z,61.70
2018-09-19T00:33:48.755Z,61.90
2018-09-19T00:34:22.271Z,61.80
2018-09-19T00:34:55.823Z,61.70
2018-09-19T00:35:29.310Z,62.40
2018-09-19T00:36:02.823Z,63.50
2018-09-19T00:36:36.337Z,64.80
2018-09-19T00:37:09.873Z,65.10
2018-09-19T00:37:43.365Z,65.70
2018-09-19T00:38:16.878Z,65.50
2018-09-19T00:38:50.441Z,65.40
2018-09-19T00:39:23.970Z,65.60
2018-09-19T00:39:57.494Z,65.50
2018-09-19T00:40:31.050Z,65.60
2018-09-19T00:41:04.632Z,67.20
2018-09-19T00:41:38.148Z,67.80
2018-09-19T00:42:11.634Z,68.30
2018-09-19T00:42:45.112Z,69.00
2018-09-19T00:43:18.586Z,69.10
2018-09-19T00:43:52.131Z,69.00
2018-09-19T00:44:25.662Z,69.10
2018-09-19T00:44:59.184Z,69.30
2018-09-19T00:45:32.704Z,70.50
2018-09-19T00:46:06.266Z,71.00
2018-09-19T00:46:39.774Z,71.10
2018-09-19T00:47:13.273Z,70.50
2018-09-19T00:47:46.764Z,70.40
2018-09-19T00:48:20.249Z,70.80
2018-09-19T00:48:53.762Z,70.90
2018-09-19T00:49:27.351Z,73.20
2018-09-19T00:50:00.916Z,73.60
2018-09-19T00:50:34.449Z,73.60
2018-09-19T00:51:07.949Z,73.30
2018-09-19T00:51:41.503Z,72.30
2018-09-19T00:52:15.063Z,71.90
2018-09-19T00:52:48.548Z,71.50
2018-09-19T00:53:22.144Z,71.30
2018-09-19T00:53:55.693Z,71.40
2018-09-19T00:54:29.219Z,71.70
2018-09-19T00:55:02.822Z,72.40
2018-09-19T00:55:36.302Z,72.40
2018-09-19T00:56:09.785Z,72.70
2018-09-19T00:56:43.287Z,72.50
2018-09-19T00:57:16.859Z,72.30
2018-09-19T00:57:50.351Z,72.10
2018-09-19T00:58:23.846Z,72.00
2018-09-19T00:58:57.351Z,72.20
2018-09-19T00:59:30.863Z,71.80
2018-09-19T01:00:04.693Z,71.60
2018-09-19T01:00:38.202Z,71.10
2018-09-19T01:01:11.671Z,71.30
2018-09-19T01:01:45.207Z,71.40
2018-09-19T01:02:18.749Z,71.10
2018-09-19T01:02:52.356Z,70.70
2018-09-19T01:06:00.358Z,70.20
2018-09-19T01:06:33.875Z,70.00
2018-09-19T01:07:07.395Z,69.40
2018-09-19T01:07:40.923Z,69.20
2018-09-19T01:08:14.444Z,69.40
2018-09-19T01:08:47.993Z,69.10
2018-09-19T01:09:21.517Z,68.90
2018-09-19T01:09:55.059Z,68.70
2018-09-19T01:10:28.572Z,68.20
2018-09-19T01:11:02.088Z,67.90
2018-09-19T01:11:35.991Z,67.70
2018-09-19T01:12:09.506Z,67.60
2018-09-19T01:12:42.987Z,67.20
2018-09-19T01:13:16.564Z,67.50
2018-09-19T01:13:50.060Z,67.60
2018-09-19T01:14:23.585Z,67.50
2018-09-19T01:14:57.080Z,67.10
2018-09-19T01:15:30.599Z,67.00
2018-09-19T01:16:04.124Z,67.20
2018-09-19T01:16:37.642Z,67.10
2018-09-19T01:17:11.166Z,67.30
2018-09-19T01:17:44.688Z,68.00
2018-09-19T01:18:18.185Z,68.60
2018-09-19T01:18:51.743Z,68.80
2018-09-19T01:19:25.276Z,68.50
2018-09-19T01:19:58.811Z,68.40
2018-09-19T01:20:32.317Z,68.70
2018-09-19T01:21:05.966Z,68.70
2018-09-19T01:21:39.459Z,68.90
2018-09-19T01:22:12.976Z,69.30
2018-09-19T01:22:46.479Z,69.50
2018-09-19T01:23:20.013Z,69.20
2018-09-19T01:23:53.524Z,69.30
2018-09-19T01:24:27.065Z,69.20
2018-09-19T01:25:00.615Z,70.80
2018-09-19T01:25:34.127Z,70.90
2018-09-19T01:26:07.706Z,70.60
2018-09-19T01:26:41.219Z,70.40
2018-09-19T01:27:14.726Z,70.60
2018-09-19T01:27:48.263Z,70.50
2018-09-19T01:28:21.788Z,70.40
2018-09-19T01:28:55.319Z,70.10
2018-09-19T01:29:28.869Z,70.30
2018-09-19T01:30:02.416Z,70.10
2018-09-19T01:30:35.914Z,70.50
2018-09-19T01:31:09.445Z,71.00
2018-09-19T01:31:42.945Z,71.20
2018-09-19T01:32:16.475Z,71.10
2018-09-19T01:32:50.032Z,71.20
2018-09-19T01:33:23.552Z,71.40
2018-09-19T01:33:57.100Z,71.50
2018-09-19T01:34:30.591Z,71.60
2018-09-19T01:35:04.163Z,71.70
2018-09-19T01:35:37.907Z,71.80
2018-09-19T01:36:11.444Z,71.70
2018-09-19T01:36:48.972Z,71.70
2018-09-19T01:37:22.486Z,72.10
2018-09-19T01:37:55.958Z,72.30
2018-09-19T01:38:29.454Z,73.00
2018-09-19T01:39:04.251Z,73.40
2018-09-19T01:39:37.780Z,73.80
2018-09-19T01:40:11.295Z,75.20
2018-09-19T01:40:44.811Z,75.20
2018-09-19T01:41:18.326Z,75.20
2018-09-19T01:41:51.835Z,75.00
2018-09-19T01:42:25.325Z,75.00
2018-09-19T01:42:58.890Z,75.10
2018-09-19T01:43:32.477Z,74.70
2018-09-19T01:44:05.982Z,74.60
2018-09-19T01:44:39.597Z,75.10
2018-09-19T01:45:13.177Z,76.30
2018-09-19T01:45:46.700Z,76.50
2018-09-19T01:46:20.264Z,76.50
2018-09-19T01:46:53.830Z,76.30
2018-09-19T01:47:27.336Z,76.70
2018-09-19T01:48:00.856Z,76.70
2018-09-19T01:48:34.380Z,76.90
2018-09-19T01:49:07.907Z,77.10
2018-09-19T01:49:41.396Z,76.50
2018-09-19T01:50:14.885Z,76.20
2018-09-19T01:50:48.426Z,75.70
2018-09-19T01:51:21.989Z,75.80
2018-09-19T01:51:55.531Z,77.20
2018-09-19T01:52:29.100Z,76.80
2018-09-19T01:53:02.586Z,76.60
2018-09-19T01:53:36.064Z,76.30
2018-09-19T01:54:09.599Z,76.00
2018-09-19T01:54:43.072Z,75.70
2018-09-19T01:55:16.588Z,75.40
2018-09-19T01:55:50.084Z,75.90
2018-09-19T01:56:23.664Z,75.90
2018-09-19T01:56:57.209Z,75.60
2018-09-19T01:57:30.708Z,75.50
2018-09-19T01:58:04.250Z,75.20
2018-09-19T01:58:37.792Z,75.30
2018-09-19T01:59:11.301Z,75.30
2018-09-19T01:59:44.784Z,75.40
2018-09-19T02:00:18.344Z,75.90
2018-09-19T02:00:51.862Z,76.10
2018-09-19T02:01:25.417Z,76.20
2018-09-19T02:01:58.940Z,77.60
2018-09-19T02:02:32.458Z,78.10
2018-09-19T02:03:06.013Z,79.10
2018-09-19T02:03:39.584Z,79.50
2018-09-19T02:04:13.120Z,80.10
2018-09-19T02:04:46.674Z,79.70
2018-09-19T02:05:20.295Z,79.50
2018-09-19T02:05:53.798Z,79.40
2018-09-19T02:06:28.588Z,79.50
2018-09-19T02:07:02.118Z,80.10
2018-09-19T02:07:35.979Z,80.70
2018-09-19T02:08:09.515Z,81.30
2018-09-19T02:08:43.038Z,82.00
2018-09-19T02:09:16.520Z,83.70
2018-09-19T02:09:50.045Z,84.80
2018-09-19T02:10:23.589Z,85.20
2018-09-19T02:10:57.416Z,85.10
2018-09-19T02:11:30.974Z,86.00
2018-09-19T02:12:04.527Z,87.10
2018-09-19T02:12:38.092Z,88.10
2018-09-19T02:13:11.565Z,88.70
2018-09-19T02:13:45.083Z,89.80
2018-09-19T02:14:18.658Z,90.40
2018-09-19T02:14:52.162Z,90.70
2018-09-19T02:15:25.661Z,90.40
2018-09-19T02:15:59.175Z,90.00
2018-09-19T02:16:32.658Z,89.90
2018-09-19T02:17:06.172Z,90.30
2018-09-19T02:17:39.646Z,91.30
2018-09-19T02:18:13.144Z,92.10
2018-09-19T02:18:46.684Z,92.70
2018-09-19T02:19:20.196Z,93.00
2018-09-19T02:19:53.696Z,93.00
2018-09-19T02:20:27.240Z,93.00
2018-09-19T02:21:00.743Z,93.40
2018-09-19T02:21:34.532Z,94.50
2018-09-19T02:22:08.084Z,94.80
2018-09-19T02:22:41.596Z,94.90
2018-09-19T02:23:15.101Z,95.50
2018-09-19T02:23:48.597Z,96.10
2018-09-19T02:24:22.105Z,96.40
2018-09-19T02:24:55.650Z,96.50
2018-09-19T02:25:29.152Z,96.40
2018-09-19T02:26:02.697Z,96.10
2018-09-19T02:26:36.221Z,95.70
2018-09-19T02:27:09.789Z,96.00
2018-09-19T02:27:43.292Z,96.70
2018-09-19T02:28:16.865Z,97.10
2018-09-19T02:28:50.367Z,97.40
2018-09-19T02:29:23.960Z,97.40
2018-09-19T02:29:57.468Z,97.80
2018-09-19T02:30:31.043Z,98.00
2018-09-19T02:31:04.579Z,97.60
2018-09-19T02:31:38.100Z,97.50
2018-09-19T02:32:11.622Z,97.00
2018-09-19T02:32:45.143Z,96.60
2018-09-19T02:33:18.648Z,96.10
2018-09-19T02:33:52.430Z,95.70
2018-09-19T02:34:25.949Z,95.20
2018-09-19T02:34:59.445Z,94.90
2018-09-19T02:35:32.976Z,95.20
2018-09-19T02:36:06.506Z,94.70
2018-09-19T02:36:40.051Z,94.70
2018-09-19T02:37:13.597Z,94.50
2018-09-19T02:37:47.264Z,94.50
2018-09-19T02:38:20.766Z,95.00
2018-09-19T02:38:56.163Z,95.30
2018-09-19T02:39:29.676Z,94.80
2018-09-19T02:40:03.240Z,94.70
2018-09-19T02:40:36.737Z,95.30
2018-09-19T02:41:10.265Z,95.70
2018-09-19T02:41:43.822Z,96.50
2018-09-19T02:42:17.343Z,97.50
2018-09-19T02:42:50.842Z,98.00
2018-09-19T02:43:24.424Z,97.80
2018-09-19T02:43:57.958Z,97.80
2018-09-19T02:44:31.470Z,98.00
2018-09-19T02:45:05.029Z,97.90
2018-09-19T02:45:38.570Z,98.10
2018-09-19T02:46:12.082Z,97.90
2018-09-19T02:46:45.602Z,98.10
2018-09-19T02:47:19.116Z,98.30
2018-09-19T02:47:52.667Z,98.40
2018-09-19T02:48:26.186Z,98.80
2018-09-19T02:48:59.710Z,98.80
2018-09-19T02:49:33.221Z,98.70
2018-09-19T02:50:06.777Z,98.80
2018-09-19T02:50:40.360Z,98.70
2018-09-19T02:51:14.358Z,99.20
2018-09-19T02:51:47.881Z,99.30
2018-09-19T02:52:21.386Z,98.80
2018-09-19T02:52:56.069Z,99.10
2018-09-19T02:53:29.609Z,99.10
2018-09-19T02:54:03.133Z,99.10
2018-09-19T02:54:36.638Z,98.60
2018-09-19T02:55:10.139Z,98.10
2018-09-19T02:55:43.676Z,97.70
2018-09-19T02:56:17.165Z,97.40
2018-09-19T02:56:50.686Z,97.10
2018-09-19T02:57:24.215Z,96.90
2018-09-19T02:57:57.847Z,96.80
2018-09-19T02:58:31.357Z,96.50
2018-09-19T02:59:04.912Z,96.30
2018-09-19T02:59:38.462Z,95.90
2018-09-19T03:00:12.000Z,95.30
2018-09-19T03:00:45.549Z,95.00
2018-09-19T03:01:19.113Z,94.60
2018-09-19T03:01:52.754Z,94.20
2018-09-19T03:02:26.540Z,93.10
2018-09-19T03:03:00.075Z,92.60
2018-09-19T03:03:33.584Z,92.00
2018-09-19T03:04:07.079Z,92.40
2018-09-19T03:04:40.569Z,91.80
2018-09-19T03:05:14.063Z,91.50
2018-09-19T03:05:47.583Z,91.30
2018-09-19T03:06:21.126Z,91.60
2018-09-19T03:06:54.682Z,91.40
2018-09-19T03:07:28.189Z,91.10
2018-09-19T03:08:01.696Z,90.80
2018-09-19T03:08:35.223Z,90.00
2018-09-19T03:09:08.762Z,89.60
2018-09-19T03:09:42.290Z,89.40
2018-09-19T03:10:15.813Z,89.50
2018-09-19T03:10:49.375Z,88.70
2018-09-19T03:11:22.906Z,89.10
2018-09-19T03:11:56.461Z,88.40
2018-09-19T03:12:30.010Z,88.20
2018-09-19T03:13:03.515Z,88.50
2018-09-19T03:13:37.018Z,87.80
2018-09-19T03:14:10.505Z,87.00
2018-09-19T03:14:44.021Z,86.70
2018-09-19T03:15:17.604Z,87.40
2018-09-19T03:15:51.109Z,87.30
2018-09-19T03:16:24.645Z,87.40
2018-09-19T03:16:58.205Z,86.70
2018-09-19T03:17:31.784Z,86.70
2018-09-19T03:18:05.246Z,86.70
2018-09-19T03:18:38.764Z,86.30
2018-09-19T03:19:12.306Z,85.80
2018-09-19T03:19:45.841Z,85.30
2018-09-19T03:20:19.366Z,85.20
2018-09-19T03:20:52.880Z,85.10
2018-09-19T03:21:26.417Z,85.20
2018-09-19T03:21:59.938Z,84.80
2018-09-19T03:22:33.435Z,85.20
2018-09-19T03:23:06.960Z,84.60
2018-09-19T03:23:40.475Z,85.40
2018-09-19T03:24:14.007Z,85.30
2018-09-19T03:24:47.533Z,85.00
2018-09-19T03:25:21.029Z,84.50
2018-09-19T03:25:54.565Z,84.20
2018-09-19T03:26:28.241Z,84.10
2018-09-19T03:27:01.777Z,83.50
2018-09-19T03:27:35.304Z,83.90
2018-09-19T03:28:09.103Z,84.20
2018-09-19T03:28:42.765Z,84.10
2018-09-19T03:29:16.270Z,83.70
2018-09-19T03:29:49.785Z,83.10
2018-09-19T03:30:23.290Z,82.60
2018-09-19T03:30:56.787Z,82.80
2018-09-19T03:31:30.335Z,83.10
2018-09-19T03:32:03.851Z,84.10
2018-09-19T03:32:37.443Z,84.40
2018-09-19T03:33:10.944Z,84.70
2018-09-19T03:33:44.441Z,84.40
2018-09-19T03:34:17.931Z,84.40
2018-09-19T03:34:51.622Z,84.00
2018-09-19T03:35:25.248Z,84.10
2018-09-19T03:35:58.663Z,84.10
2018-09-19T03:36:32.183Z,84.50
2018-09-19T03:37:05.744Z,84.90
2018-09-19T03:37:39.239Z,85.30
2018-09-19T03:38:12.757Z,85.40
2018-09-19T03:38:46.355Z,85.30
2018-09-19T03:39:19.881Z,85.00
2018-09-19T03:39:53.422Z,84.20
2018-09-19T03:40:27.113Z,84.50
2018-09-19T03:41:00.641Z,84.80
2018-09-19T03:41:34.159Z,85.00
2018-09-19T03:42:07.691Z,85.30
2018-09-19T03:42:41.207Z,85.40
2018-09-19T03:43:14.703Z,85.40
2018-09-19T03:43:48.195Z,84.70
2018-09-19T03:44:21.721Z,84.40
2018-09-19T03:44:55.270Z,84.00
2018-09-19T03:45:28.845Z,83.80
2018-09-19T03:46:02.368Z,83.50
2018-09-19T03:46:36.660Z,83.20
2018-09-19T03:47:10.192Z,83.00
2018-09-19T03:47:43.707Z,82.50
2018-09-19T03:48:17.213Z,82.20
2018-09-19T03:48:50.730Z,81.50
2018-09-19T03:49:24.261Z,81.60
2018-09-19T03:49:57.762Z,81.80
2018-09-19T03:50:31.315Z,81.90
2018-09-19T03:51:04.973Z,81.50
2018-09-19T03:51:38.908Z,81.40
2018-09-19T03:52:12.457Z,81.80
2018-09-19T03:52:46.007Z,81.90
2018-09-19T03:53:19.533Z,81.60
2018-09-19T03:53:53.046Z,81.20
2018-09-19T03:54:26.562Z,81.40
2018-09-19T03:55:00.074Z,81.20
2018-09-19T03:55:33.610Z,81.00
2018-09-19T03:56:07.269Z,80.90
2018-09-19T03:56:40.777Z,80.40
2018-09-19T03:57:14.291Z,80.20
2018-09-19T03:57:48.225Z,79.50
2018-09-19T03:58:21.835Z,78.90
2018-09-19T03:58:55.288Z,79.00
2018-09-19T03:59:28.813Z,79.20
2018-09-19T04:00:02.414Z,78.60
2018-09-19T04:00:35.956Z,79.30
2018-09-19T04:01:09.483Z,78.50
2018-09-19T04:01:43.040Z,79.20
2018-09-19T04:02:16.562Z,79.50
2018-09-19T04:02:50.088Z,79.10
2018-09-19T04:03:23.611Z,78.90
2018-09-19T04:03:57.120Z,77.80
2018-09-19T04:04:30.624Z,78.20
2018-09-19T04:05:04.173Z,78.30
2018-09-19T04:05:37.766Z,78.10
2018-09-19T04:06:11.296Z,77.60
2018-09-19T04:06:44.845Z,77.90
2018-09-19T04:07:18.442Z,77.30
2018-09-19T04:07:51.946Z,77.60
2018-09-19T04:08:25.449Z,77.80
2018-09-19T04:08:58.953Z,77.60
2018-09-19T04:09:32.465Z,77.40
2018-09-19T04:10:05.971Z,78.20
2018-09-19T04:10:39.466Z,79.50
2018-09-19T04:11:12.976Z,79.70
2018-09-19T04:11:46.504Z,79.20
2018-09-19T04:12:20.039Z,79.10
2018-09-19T04:12:53.535Z,78.40
2018-09-19T04:13:27.053Z,78.00
2018-09-19T04:14:00.556Z,78.20
2018-09-19T04:14:34.036Z,77.60
2018-09-19T04:15:07.553Z,77.20
2018-09-19T04:15:41.092Z,76.70
2018-09-19T04:16:14.603Z,76.70
2018-09-19T04:16:48.139Z,76.90
2018-09-19T04:17:21.680Z,76.20
2018-09-19T04:17:55.238Z,76.50
2018-09-19T04:19:17.228Z,76.30
2018-09-19T04:19:50.750Z,76.30
2018-09-19T04:20:24.246Z,76.30
2018-09-19T04:20:57.735Z,76.10
2018-09-19T04:21:31.262Z,75.60
2018-09-19T04:22:04.818Z,75.50
2018-09-19T04:22:38.357Z,75.10
2018-09-19T04:23:11.862Z,74.80
2018-09-19T04:23:45.361Z,74.60
2018-09-19T04:24:18.857Z,74.40
2018-09-19T04:24:52.348Z,74.30
2018-09-19T04:25:25.859Z,74.10
2018-09-19T04:25:59.387Z,73.90
2018-09-19T04:26:32.923Z,73.60
2018-09-19T04:27:06.477Z,73.70
2018-09-19T04:27:40.003Z,73.70
2018-09-19T04:28:13.517Z,74.00
2018-09-19T04:28:47.051Z,74.00
2018-09-19T04:29:20.561Z,73.30
2018-09-19T04:29:54.053Z,72.50
2018-09-19T04:30:27.555Z,72.70
2018-09-19T04:31:01.097Z,72.80
2018-09-19T04:31:34.602Z,72.70
2018-09-19T04:32:08.169Z,72.80
2018-09-19T04:32:41.693Z,72.40
2018-09-19T04:33:15.214Z,72.00
2018-09-19T04:33:48.712Z,72.90
2018-09-19T04:34:22.216Z,73.10
2018-09-19T04:34:55.770Z,73.10
2018-09-19T04:35:29.309Z,72.90
2018-09-19T04:36:02.851Z,72.90
2018-09-19T04:36:36.356Z,73.00
2018-09-19T04:37:09.986Z,73.10
2018-09-19T04:37:43.501Z,72.90
2018-09-19T04:38:17.037Z,72.70
2018-09-19T04:38:50.579Z,72.70
2018-09-19T04:39:24.127Z,72.70
2018-09-19T04:39:57.696Z,72.90
2018-09-19T04:40:31.194Z,72.70
2018-09-19T04:41:04.728Z,72.90
2018-09-19T04:41:38.276Z,73.10
2018-09-19T04:42:11.801Z,73.20
2018-09-19T04:42:45.322Z,72.70
2018-09-19T04:43:18.898Z,73.20
2018-09-19T04:43:52.560Z,73.00
2018-09-19T04:44:26.070Z,72.50
2018-09-19T04:44:59.586Z,72.80
2018-09-19T04:45:33.096Z,73.20
2018-09-19T04:46:06.676Z,73.10
2018-09-19T04:46:40.228Z,73.00
2018-09-19T04:47:13.728Z,72.90
2018-09-19T04:47:47.212Z,72.40
2018-09-19T04:48:20.745Z,72.00
2018-09-19T04:48:54.261Z,71.40
2018-09-19T04:49:27.778Z,71.20
2018-09-19T04:50:01.370Z,70.80
2018-09-19T04:50:34.917Z,71.00
2018-09-19T04:51:08.418Z,71.30
2018-09-19T04:51:42.018Z,71.40
2018-09-19T04:52:15.452Z,71.40
2018-09-19T04:52:48.972Z,70.70
2018-09-19T04:53:22.616Z,70.40
2018-09-19T04:53:56.145Z,70.30
2018-09-19T04:54:29.656Z,69.70
2018-09-19T04:55:04.593Z,69.70
2018-09-19T04:55:38.112Z,69.50
2018-09-19T04:56:11.615Z,70.00
2018-09-19T04:56:45.152Z,70.30
2018-09-19T04:57:18.641Z,70.30
2018-09-19T04:57:52.166Z,69.80
2018-09-19T04:58:25.682Z,71.20
2018-09-19T04:58:59.350Z,71.20
2018-09-19T04:59:32.920Z,71.40
2018-09-19T05:00:06.515Z,70.80
2018-09-19T05:00:40.030Z,71.00
2018-09-19T05:01:13.544Z,71.20
2018-09-19T05:01:47.020Z,71.10
2018-09-19T05:02:20.544Z,71.00
2018-09-19T05:02:54.120Z,70.50
2018-09-19T05:03:27.640Z,70.50
2018-09-19T05:04:01.155Z,70.10
2018-09-19T05:04:34.664Z,69.90
2018-09-19T05:05:08.162Z,70.10
2018-09-19T05:05:41.667Z,70.10
2018-09-19T05:06:15.123Z,69.60
2018-09-19T05:06:48.613Z,70.00
2018-09-19T05:07:22.167Z,69.90
2018-09-19T05:07:55.644Z,70.20
2018-09-19T05:08:29.136Z,71.30
2018-09-19T05:09:02.900Z,71.00
2018-09-19T05:09:36.395Z,71.30
2018-09-19T05:10:09.913Z,71.10
2018-09-19T05:10:43.457Z,71.00
2018-09-19T05:11:17.002Z,70.40
2018-09-19T05:11:50.486Z,70.60
2018-09-19T05:12:24.035Z,70.70
2018-09-19T05:12:57.572Z,70.90
2018-09-19T05:13:31.095Z,70.60
2018-09-19T05:14:04.670Z,70.10
2018-09-19T05:14:38.209Z,71.10
2018-09-19T05:15:11.705Z,71.50
2018-09-19T05:15:45.212Z,72.60
2018-09-19T05:16:19.056Z,73.40
2018-09-19T05:16:52.598Z,74.00
2018-09-19T05:17:26.140Z,74.10
2018-09-19T05:17:59.665Z,74.20
2018-09-19T05:18:33.195Z,74.70
2018-09-19T05:19:06.693Z,74.50
2018-09-19T05:19:40.227Z,74.50
2018-09-19T05:20:13.714Z,74.10
2018-09-19T05:20:47.240Z,74.00
2018-09-19T05:21:20.765Z,74.30
2018-09-19T05:21:54.259Z,74.80
2018-09-19T05:22:27.728Z,75.80
2018-09-19T05:23:01.246Z,75.60
2018-09-19T05:23:34.780Z,75.20
2018-09-19T05:24:08.308Z,75.30
2018-09-19T05:24:41.818Z,75.30
2018-09-19T05:25:15.365Z,75.90
2018-09-19T05:25:48.870Z,75.60
2018-09-19T05:26:22.350Z,75.90
2018-09-19T05:26:55.874Z,75.90
2018-09-19T05:27:29.424Z,76.90
2018-09-19T05:28:02.944Z,76.80
2018-09-19T05:28:36.487Z,76.50
2018-09-19T05:29:10.025Z,76.70
2018-09-19T05:29:43.946Z,77.00
2018-09-19T05:30:17.462Z,76.90
2018-09-19T05:30:50.980Z,76.50
2018-09-19T05:31:24.547Z,76.20
2018-09-19T05:31:57.995Z,76.30
2018-09-19T05:32:31.487Z,76.00
2018-09-19T05:33:05.029Z,75.50
2018-09-19T05:33:38.519Z,75.00
2018-09-19T05:34:12.040Z,74.80
2018-09-19T05:34:45.582Z,74.30
2018-09-19T05:35:19.105Z,74.30
2018-09-19T05:35:52.623Z,74.30
2018-09-19T05:36:26.155Z,74.40
2018-09-19T05:36:59.642Z,74.10
2018-09-19T05:37:33.151Z,74.00
2018-09-19T05:38:06.758Z,74.30
2018-09-19T05:38:40.298Z,74.40
2018-09-19T05:39:13.828Z,74.20
2018-09-19T05:39:47.344Z,73.80
2018-09-19T05:40:20.859Z,73.40
2018-09-19T05:40:54.400Z,73.00
2018-09-19T05:41:27.911Z,72.40
2018-09-19T05:42:01.413Z,72.40
2018-09-19T05:42:34.928Z,72.70
2018-09-19T05:43:08.474Z,72.80
2018-09-19T05:43:41.975Z,72.70
2018-09-19T05:44:15.475Z,72.30
2018-09-19T05:44:48.985Z,71.90
2018-09-19T05:45:22.497Z,72.00
2018-09-19T05:45:55.995Z,71.80
2018-09-19T05:46:29.541Z,71.60
2018-09-19T05:47:03.013Z,71.50
2018-09-19T05:47:36.512Z,71.60
2018-09-19T05:48:10.015Z,71.70
2018-09-19T05:48:43.505Z,72.30
2018-09-19T05:49:17.019Z,72.70
2018-09-19T05:49:50.528Z,72.80
2018-09-19T05:50:24.037Z,73.00
2018-09-19T05:50:57.561Z,72.80
2018-09-19T05:51:31.067Z,73.00
2018-09-19T05:52:04.623Z,73.10
2018-09-19T05:52:38.123Z,73.30
2018-09-19T05:53:11.616Z,72.90
2018-09-19T05:53:45.285Z,73.50
2018-09-19T05:54:18.844Z,73.50
2018-09-19T05:54:53.019Z,72.90
2018-09-19T05:55:26.529Z,74.30
2018-09-19T05:56:00.063Z,74.60
2018-09-19T05:56:33.569Z,74.60
2018-09-19T05:57:06.900Z,74.50
2018-09-19T05:57:40.398Z,74.50
2018-09-19T05:58:13.984Z,74.60
2018-09-19T05:58:47.474Z,74.00
2018-09-19T05:59:21.004Z,74.30
2018-09-19T05:59:54.520Z,74.50
2018-09-19T06:00:28.015Z,74.10
2018-09-19T06:01:01.527Z,73.80
2018-09-19T06:01:35.025Z,73.30
2018-09-19T06:02:08.514Z,73.00
2018-09-19T06:02:42.008Z,73.00
2018-09-19T06:03:15.509Z,73.00
2018-09-19T06:03:49.053Z,72.70
2018-09-19T06:04:22.575Z,72.70
2018-09-19T06:04:56.153Z,72.30
2018-09-19T06:05:29.646Z,71.60
2018-09-19T06:06:03.192Z,71.10
2018-09-19T06:06:36.679Z,71.00
2018-09-19T06:07:10.181Z,70.90
2018-09-19T06:07:47.516Z,71.00
2018-09-19T06:08:21.112Z,71.20
2018-09-19T06:08:54.616Z,70.80
2018-09-19T06:09:28.134Z,70.40
2018-09-19T06:10:01.647Z,70.10
2018-09-19T06:10:35.161Z,70.00
2018-09-19T06:11:08.705Z,69.40
2018-09-19T06:11:42.217Z,69.60
2018-09-19T06:12:15.749Z,69.80
2018-09-19T06:12:49.302Z,69.80
2018-09-19T06:13:22.772Z,70.70
2018-09-19T06:13:56.268Z,71.00
2018-09-19T06:14:29.811Z,70.80
2018-09-19T06:15:03.348Z,70.70
2018-09-19T06:15:36.886Z,70.50
2018-09-19T06:16:10.364Z,69.40
2018-09-19T06:16:43.839Z,69.20
2018-09-19T06:17:17.363Z,69.10
2018-09-19T06:17:50.944Z,68.80
2018-09-19T06:18:24.442Z,68.40
2018-09-19T06:18:57.981Z,67.80
2018-09-19T06:19:31.501Z,67.70
2018-09-19T06:20:05.188Z,67.80
2018-09-19T06:20:38.659Z,67.80
2018-09-19T06:21:12.138Z,67.90
2018-09-19T06:21:45.615Z,67.90
2018-09-19T06:22:19.171Z,67.20
2018-09-19T06:22:52.770Z,66.70
2018-09-19T06:23:26.292Z,67.10
2018-09-19T06:23:59.809Z,65.90
2018-09-19T06:24:33.297Z,65.70
2018-09-19T06:25:07.214Z,66.10
2018-09-19T06:25:40.726Z,65.50
2018-09-19T06:26:14.211Z,64.80
2018-09-19T06:26:47.736Z,65.20
2018-09-19T06:27:21.258Z,64.80
2018-09-19T06:27:54.769Z,63.80
2018-09-19T06:28:28.274Z,61.70
2018-09-19T06:29:01.786Z,61.80
2018-09-19T06:29:35.350Z,61.20
2018-09-19T06:30:08.912Z,61.40
2018-09-19T06:30:42.395Z,61.60
2018-09-19T06:31:15.890Z,61.00
2018-09-19T06:31:49.406Z,60.80
2018-09-19T06:32:22.980Z,60.10
2018-09-19T06:32:56.588Z,60.90
2018-09-19T06:33:30.088Z,60.70
2018-09-19T06:34:03.616Z,59.80
2018-09-19T06:34:37.119Z,60.00
2018-09-19T06:35:10.676Z,59.80
2018-09-19T06:35:44.190Z,59.80
2018-09-19T06:36:17.708Z,57.10
2018-09-19T06:36:51.238Z,57.40
2018-09-19T06:37:24.716Z,57.90
2018-09-19T06:37:58.249Z,58.30
2018-09-19T06:38:31.752Z,55.90
2018-09-19T06:39:07.475Z,55.30
2018-09-19T06:39:41.051Z,55.70
2018-09-19T06:40:14.625Z,56.60
2018-09-19T06:40:48.231Z,56.00
2018-09-19T06:41:21.719Z,55.80
2018-09-19T06:41:55.248Z,55.60
2018-09-19T06:42:28.742Z,56.00
2018-09-19T06:43:02.236Z,55.60
2018-09-19T06:43:35.727Z,53.00
2018-09-19T06:44:09.226Z,52.60
2018-09-19T06:44:42.717Z,53.20
2018-09-19T06:45:16.228Z,53.40
2018-09-19T06:45:49.784Z,53.60
2018-09-19T06:46:23.311Z,52.10
2018-09-19T06:46:56.866Z,52.60
2018-09-19T06:47:30.393Z,53.50
2018-09-19T06:48:03.961Z,52.90
2018-09-19T06:48:37.468Z,51.80
2018-09-19T06:49:10.946Z,50.10
2018-09-19T06:49:44.509Z,51.30
2018-09-19T06:50:18.033Z,51.80
2018-09-19T06:50:51.539Z,51.10
2018-09-19T06:51:25.063Z,50.50
2018-09-19T06:51:58.619Z,50.10
2018-09-19T06:52:32.163Z,50.70
2018-09-19T06:53:05.637Z,50.60
2018-09-19T06:53:39.271Z,50.80
2018-09-19T06:54:12.784Z,51.30
2018-09-19T06:54:46.292Z,51.30
2018-09-19T06:55:19.797Z,51.00
2018-09-19T06:55:53.315Z,49.10
2018-09-19T06:56:26.856Z,46.80
2018-09-19T06:57:00.391Z,45.80
2018-09-19T06:57:33.914Z,45.20
2018-09-19T06:58:07.463Z,43.70
2018-09-19T06:58:40.997Z,44.40
2018-09-19T06:59:14.527Z,44.20
2018-09-19T06:59:48.292Z,44.30
2018-09-19T07:00:21.785Z,44.30
2018-09-19T07:00:55.286Z,44.40
2018-09-19T07:01:28.876Z,44.00
2018-09-19T07:02:02.391Z,44.30
2018-09-19T07:02:35.902Z,42.10
2018-09-19T07:03:09.399Z,42.40
2018-09-19T07:03:42.911Z,42.20
2018-09-19T07:04:16.415Z,41.70
2018-09-19T07:04:50.158Z,42.10
2018-09-19T07:05:23.682Z,42.60
2018-09-19T07:05:57.248Z,42.70
2018-09-19T07:06:30.720Z,43.30
2018-09-19T07:07:04.291Z,41.60
2018-09-19T07:07:37.798Z,39.60
2018-09-19T07:08:11.312Z,41.00
2018-09-19T07:08:44.816Z,40.50
2018-09-19T07:09:18.326Z,40.10
2018-09-19T07:09:51.846Z,38.90
2018-09-19T07:10:25.380Z,39.80
2018-09-19T07:10:58.900Z,38.80
2018-09-19T07:11:32.423Z,38.50
2018-09-19T07:12:06.080Z,38.30
2018-09-19T07:12:39.559Z,38.60
2018-09-19T07:13:13.061Z,37.80
2018-09-19T07:13:46.558Z,38.10
2018-09-19T07:14:20.086Z,36.20
2018-09-19T07:14:53.591Z,36.10
2018-09-19T07:15:27.112Z,37.80
2018-09-19T07:16:00.672Z,39.30
2018-09-19T07:16:34.226Z,39.30